Arnegard, ND (58835)

2:11 AM CST on November 27, 2014 (GMT -0600)
Bison pasture GRASS | Change Station
CLOSE
Current Station
Personal Weather Station
Location: Alexander, ND
Elevation: 2260 ft
Nearby Weather Stations
Active Advisory: Freezing Rain Advisory Active Notice: Record Report

Elev 2260 ft 47.87 °N, 103.62 °W | Updated 12 minutes ago

Mostly Cloudy
Mostly Cloudy
7.5 °F
Feels Like -3 °F
N
6.0
Wind Variable Wind from SE

Today
High -- | Low -- °F
--% Chance of Precip.
Yesterday
High -- | Low -- °F
Precip. -- in
8:16 AM 5:05 PM
Waxing Crescent, 27% visible
Pressure 30.46 in
Visibility 10.0 miles
Clouds Clear
Windchill -3 °F
Dew Point 5 °F
Humidity 88%
Rainfall 0.00 in
Snow Depth Not available.
UV 0 out of 12
Pollen .10 out of 12
Air Quality Not available.
Flu Activity Not available.
METAR KISN 270752Z AUTO 06004KT 10SM CLR M14/M17 A3032 RMK AO2 SLP314 T11441167

More Conditions Fewer Conditions

Pressure 30.46 in
Visibility 10.0 miles
Clouds Clear
Windchill -3 °F
Dew Point 5 °F
Humidity 88%
Rainfall 0.00 in
Snow Depth Not available.
UV 0 out of 12
Pollen .10 out of 12
Air Quality Not available.
Flu Activity Not available.
METAR KISN 270752Z AUTO 06004KT 10SM CLR M14/M17 A3032 RMK AO2 SLP314 T11441167

More Conditions Fewer Conditions

10-Day Weather Forecast

Almanac

Astronomy

Nov. 27, 2014 Rise Set
Actual Time
Civil Twilight
Nautical Twilight
Astronomical Twilight
Moon
Length of Visible Light
Length of Day
Tomorrow will be .
, % of the Moon is Illuminated

Today's Extremes

State Highs State Lows

Community

WunderPhotos

Upload Photos

1,773,965 photos uploaded!

WunderBlogs® & News

Nearby

Air Quality

  Air Quality AQ Index Pollutant
Not available.

Snow Depth

Station Depth Elevation

Earthquake Activity

City Distance Mag. Time & Date
Minimum magnitude displayed is 2.5.

Coastal Water Temperatures

Place Temperature

Nearby Weather Stations